• Join FlightAware (Why Join?)
  • Login
  • US Flag 
01:29PM EDT


 

Airport Tracker/Info


-or-


 

Live Flight TrackerFlight Track Log ✈ HAL45 ✈ 10-Apr-2013 ✈ KSJC - PHOG / OGG

Flight Track Log - Related Links

Times and Time Zones

All times are in EDT time to prevent confusion due to time zone crossing. See the HAL45 flight status page for this flight to view local times or setup timezone preferences in your user account.

Time Position Orientation Groundspeed Altitude Reporting Facility
EDT Latitude Longitude Course Direction KTS MPH feet Rate Location/Type
11:09AM 37.4167 -121.9833 264° West 202 232 2,500  Level Northern Cal TRACON
11:10AM 37.4500 -122.0333 310° West 223 257 3,000 840 Climbing Northern Cal TRACON
11:11AM 37.3738 -122.3624 263° West  Level FlightAware Approximate
11:11AM 37.4000 -122.1333 238° Southwest 279 321 4,100  Level Northern Cal TRACON
11:12AM 37.3546 -122.5119 259° West  Level FlightAware Approximate
11:12AM 37.3589 -122.2025 233° Southwest 277 319 4,800  Level Oakland Center
11:13AM 37.3324 -122.6607 264° West  Level FlightAware Approximate
11:13AM 37.3425 -122.2969 258° West 278 320 6,200  Level Oakland Center
11:14AM 37.3187 -122.8111 264° West  Level FlightAware Approximate
11:14AM 37.3286 -122.4172 262° West 286 329 9,700  Level Oakland Center
11:15AM 37.3161 -122.5269 262° West 309 356 11,000 1,860 Climbing Oakland Center
11:16AM 37.3008 -122.6489 261° West 339 390 13,600 2,580 Climbing Oakland Center
11:17AM 37.2844 -122.7742 261° West 357 411 16,300 2,520 Climbing Oakland Center
11:18AM 37.2628 -122.9031 258° West 372 428 18,800 2,340 Climbing Oakland Center
11:19AM 37.2383 -123.0328 257° West 381 438 21,200 2,220 Climbing Oakland Center
11:20AM 37.2142 -123.1647 257° West 387 445 23,400 1,920 Climbing Oakland Center
11:21AM 37.1903 -123.3008 258° West 398 458 25,200 1,680 Climbing Oakland Center
11:22AM 37.1644 -123.4419 257° West 413 475 26,900 1,560 Climbing Oakland Center
11:23AM 37.1372 -123.5839 257° West 419 482 28,400 1,380 Climbing Oakland Center
11:24AM 37.1100 -123.7311 257° West 433 498 29,800 1,560 Climbing Oakland Center
11:25AM 37.0761 -123.9114 257° West 443 510 31,600 1,680 Climbing Oakland Center
11:26AM 37.0494 -124.0619 258° West 444 511 33,300 1,500 Climbing Oakland Center
11:27AM 37.0197 -124.2097 256° West 438 504 34,700 1,140 Climbing Oakland Center
11:28AM 36.9911 -124.3583 256° West 440 506 35,700 600 Climbing Oakland Center
11:29AM 36.9622 -124.5058 256° West 438 504 36,000 120 Climbing Oakland Center
11:30AM 36.9350 -124.6531 257° West 436 502 36,000  Level Oakland Center
11:31AM 36.9053 -124.7983 256° West 433 498 36,000  Level Oakland Center
11:32AM 36.8764 -124.9467 256° West 440 506 36,000  Level Oakland Center
11:33AM 36.8481 -125.0917 256° West 435 501 36,000  Level Oakland Center
11:34AM 36.8192 -125.2378 256° West 434 499 36,000  Level Oakland Center
11:35AM 36.7853 -125.4142 257° West 435 501 36,000  Level Oakland Center
11:36AM 36.7550 -125.5592 255° West 434 499 36,000  Level Oakland Center
11:37AM 36.7253 -125.7047 256° West 434 499 36,000  Level Oakland Center
11:38AM 36.6947 -125.8511 255° West 436 502 36,000  Level Oakland Center
11:39AM 36.6650 -125.9958 256° West 435 501 36,000  Level Oakland Center
11:40AM 36.6344 -126.1428 256° West 437 503 36,000  Level Oakland Center
11:41AM 36.6039 -126.2886 255° West 437 503 36,000  Level Oakland Center
11:46AM 36.4667 -126.9333 250° West 439 505 36,000  Level Oakland Oceanic (ODAPS)
11:47AM 36.4230 -127.1230 255° West 434 499 36,000  Level ACARS Aircraft Datalink
11:52AM 36.2167 -127.7500 250° West 442 509 36,000  Level Oakland Oceanic (ODAPS)
11:53AM 36.1751 -127.9199 250° West 439 505 36,000  Level FlightAware Transoceanic
11:54AM 36.1328 -128.0603 249° West 439 505 36,000  Level FlightAware Transoceanic
11:55AM 36.0903 -128.2005 249° West 439 505 36,000  Level FlightAware Transoceanic
11:56AM 36.0477 -128.3405 249° West 439 505 36,000  Level FlightAware Transoceanic
11:57AM 36.0049 -128.4804 249° West 439 505 36,000  Level FlightAware Transoceanic
11:58AM 35.9561 -128.6123 249° West 442 509 36,000  Level FlightAware Transoceanic
11:59AM 35.9120 -128.7555 249° West 442 509 36,000  Level FlightAware Transoceanic
12:00PM 35.8679 -128.8985 249° West 442 509 36,000  Level FlightAware Transoceanic
12:01PM 35.8235 -129.0414 249° West 442 509 36,000  Level FlightAware Transoceanic
12:02PM 35.7789 -129.1841 249° West 442 509 36,000  Level FlightAware Transoceanic
12:03PM 35.7342 -129.3266 249° West 442 509 36,000  Level FlightAware Transoceanic
12:04PM 35.6894 -129.4689 249° West 442 509 36,000  Level FlightAware Transoceanic
12:05PM 35.6443 -129.6111 249° West 442 509 36,000  Level FlightAware Transoceanic
12:06PM 35.5991 -129.7532 249° West 442 509 36,000  Level FlightAware Transoceanic
12:06PM 35.6167 -129.7000 249° West 442 509 36,000  Level Oakland Oceanic (ODAPS)
12:07PM 35.5537 -129.8951 248° West 442 509 36,000  Level FlightAware Transoceanic
12:08PM 35.5082 -130.0368 248° West 442 509 36,000  Level FlightAware Transoceanic
12:09PM 35.4625 -130.1784 248° West 442 509 36,000  Level FlightAware Transoceanic
12:10PM 35.4166 -130.3198 248° West 442 509 36,000  Level FlightAware Transoceanic
12:11PM 35.3706 -130.4610 248° West 442 509 36,000  Level FlightAware Transoceanic
12:12PM 35.3473 -130.5337 248° West 442 509 36,000  Level FlightAware Transoceanic
12:13PM 35.3019 -130.6721 248° West 442 509 36,000  Level FlightAware Transoceanic
12:14PM 35.2562 -130.8104 248° West 442 509 36,000  Level FlightAware Transoceanic
12:15PM 35.2105 -130.9485 248° West 442 509 36,000  Level FlightAware Transoceanic
12:16PM 35.1646 -131.0864 248° West 442 509 36,000  Level FlightAware Transoceanic
12:17PM 35.1185 -131.2242 248° West 442 509 36,000  Level FlightAware Transoceanic
12:18PM 35.0723 -131.3618 248° West 442 509 36,000  Level FlightAware Transoceanic
12:19PM 35.0259 -131.4993 248° West 442 509 36,000  Level FlightAware Transoceanic
12:19PM 34.9833 -131.6167 248° West 440 506 36,000  Level Oakland Oceanic (ODAPS)
12:20PM 34.9793 -131.6366 247° West 442 509 36,000  Level FlightAware Transoceanic
12:21PM 34.9326 -131.7737 247° West 442 509 36,000  Level FlightAware Transoceanic
12:22PM 34.8858 -131.9107 247° West 442 509 36,000  Level FlightAware Transoceanic
12:23PM 34.8388 -132.0476 247° West 442 509 36,000  Level FlightAware Transoceanic
12:24PM 34.7916 -132.1843 247° West 442 509 36,000  Level FlightAware Transoceanic
12:25PM 34.7443 -132.3208 247° West 442 509 36,000  Level FlightAware Transoceanic
12:26PM 34.6997 -132.4433 247° West 440 506 36,000  Level FlightAware Transoceanic
12:27PM 34.6519 -132.5805 247° West 440 506 36,000  Level FlightAware Transoceanic
12:28PM 34.6040 -132.7176 247° West 440 506 36,000  Level FlightAware Transoceanic
12:29PM 34.5559 -132.8545 247° West 440 506 36,000  Level FlightAware Transoceanic
12:30PM 34.5076 -132.9913 247° West 440 506 36,000  Level FlightAware Transoceanic
12:31PM 34.4592 -133.1279 247° West 440 506 36,000  Level FlightAware Transoceanic
12:32PM 34.4106 -133.2643 247° West 440 506 36,000  Level FlightAware Transoceanic
12:33PM 34.3619 -133.4005 247° West 440 506 36,000  Level FlightAware Transoceanic
12:33PM 34.3167 -133.5333 246° West 445 512 36,000  Level Oakland Oceanic (ODAPS)
12:34PM 34.3130 -133.5367 246° West 440 506 36,000  Level FlightAware Transoceanic
12:35PM 34.2640 -133.6726 246° West 440 506 36,000  Level FlightAware Transoceanic
12:36PM 34.2148 -133.8084 246° West 440 506 36,000  Level FlightAware Transoceanic
12:37PM 34.1655 -133.9440 246° West 440 506 36,000  Level FlightAware Transoceanic
12:38PM 34.1161 -134.0795 246° West 440 506 36,000  Level FlightAware Transoceanic
12:39PM 34.0670 -134.2143 246° West 445 512 36,000  Level FlightAware Transoceanic
12:39PM 34.0167 -134.3500 246° West 455 524 36,000  Level Oakland Oceanic (ODAPS)
12:40PM 34.0167 -134.3500 246° West 445 512 36,000  Level FlightAware Transoceanic
12:40PM 34.0180 -134.4110 246° West 454 522 36,000  Level ACARS Aircraft Datalink
12:42PM 33.9171 -134.6782 246° West  Level FlightAware Approximate
12:43PM 33.8664 -134.8116 245° Southwest  Level FlightAware Approximate
12:44PM 33.8156 -134.9447 245° Southwest  Level FlightAware Approximate
12:45PM 33.7646 -135.0778 245° Southwest  Level FlightAware Approximate
12:46PM 33.7035 -135.1886 246° West 455 524 36,000  Level FlightAware Transoceanic
12:47PM 33.6508 -135.3277 245° Southwest 455 524 36,000  Level FlightAware Transoceanic
12:47PM 33.6167 -135.4333 245° Southwest 459 528 36,000  Level Oakland Oceanic (ODAPS)
12:48PM 33.5979 -135.4667 245° Southwest 455 524 36,000  Level FlightAware Transoceanic
12:49PM 33.5449 -135.6055 245° Southwest 455 524 36,000  Level FlightAware Transoceanic
12:50PM 33.4917 -135.7442 245° Southwest 455 524 36,000  Level FlightAware Transoceanic
12:51PM 33.4383 -135.8827 245° Southwest 455 524 36,000  Level FlightAware Transoceanic
12:52PM 33.3848 -136.0210 245° Southwest 455 524 36,000  Level FlightAware Transoceanic
12:53PM 33.3312 -136.1591 245° Southwest 455 524 36,000  Level FlightAware Transoceanic
12:54PM 33.2479 -136.3852 245° Southwest 459 528 36,000  Level FlightAware Transoceanic
12:55PM 33.1947 -136.5205 245° Southwest 459 528 36,000  Level FlightAware Transoceanic
12:56PM 33.1413 -136.6557 245° Southwest 459 528 36,000  Level FlightAware Transoceanic
12:57PM 33.0877 -136.7907 245° Southwest 459 528 36,000  Level FlightAware Transoceanic
12:58PM 33.0340 -136.9255 245° Southwest 459 528 36,000  Level FlightAware Transoceanic
12:59PM 32.9801 -137.0602 244° Southwest 459 528 36,000  Level FlightAware Transoceanic
01:00PM 32.9262 -137.1947 244° Southwest 459 528 36,000  Level FlightAware Transoceanic
01:01PM 32.8720 -137.3290 244° Southwest 459 528 36,000  Level FlightAware Transoceanic
01:01PM 32.8667 -137.3333 244° Southwest 461 531 36,000  Level Oakland Oceanic (ODAPS)
01:02PM 32.8177 -137.4632 244° Southwest 459 528 36,000  Level FlightAware Transoceanic
01:03PM 32.7633 -137.5972 244° Southwest 459 528 36,000  Level FlightAware Transoceanic
01:04PM 32.7088 -137.7310 244° Southwest 459 528 36,000  Level FlightAware Transoceanic
01:05PM 32.6540 -137.8647 244° Southwest 459 528 36,000  Level FlightAware Transoceanic
01:06PM 32.5992 -137.9982 244° Southwest 459 528 36,000  Level FlightAware Transoceanic
01:07PM 32.5399 -138.1350 244° Southwest 461 531 36,000  Level FlightAware Transoceanic
01:08PM 32.4849 -138.2680 244° Southwest 461 531 36,000  Level FlightAware Transoceanic
01:09PM 32.4299 -138.4009 244° Southwest 461 531 36,000  Level FlightAware Transoceanic
01:10PM 32.3746 -138.5336 244° Southwest 461 531 36,000  Level FlightAware Transoceanic
01:11PM 32.3192 -138.6662 244° Southwest 461 531 36,000  Level FlightAware Transoceanic
01:12PM 32.2637 -138.7986 244° Southwest 461 531 36,000  Level FlightAware Transoceanic
01:13PM 32.2081 -138.9308 244° Southwest 461 531 36,000  Level FlightAware Transoceanic
01:14PM 32.1523 -139.0628 243° Southwest 461 531 36,000  Level FlightAware Transoceanic
01:15PM 32.0964 -139.1947 243° Southwest 461 531 36,000  Level FlightAware Transoceanic
01:15PM 32.0833 -139.2333 243° Southwest 466 536 36,000  Level Oakland Oceanic (ODAPS)
01:16PM 32.0403 -139.3265 243° Southwest 461 531 36,000  Level FlightAware Transoceanic
01:17PM 31.9841 -139.4581 243° Southwest 461 531 36,000  Level FlightAware Transoceanic
01:18PM 31.9278 -139.5895 243° Southwest 461 531 36,000  Level FlightAware Transoceanic
01:19PM 31.8713 -139.7207 243° Southwest 461 531 36,000  Level FlightAware Transoceanic
01:20PM 31.8147 -139.8518 243° Southwest 461 531 36,000  Level FlightAware Transoceanic
01:21PM 31.7273 -140.0581 243° Southwest 466 536 36,000  Level FlightAware Transoceanic
01:22PM 31.6674 -140.1949 243° Southwest 466 536 36,000  Level FlightAware Transoceanic
01:23PM 31.6074 -140.3316 243° Southwest 466 536 36,000  Level FlightAware Transoceanic
01:24PM 31.5473 -140.4681 243° Southwest 466 536 36,000  Level FlightAware Transoceanic
01:25PM 31.4870 -140.6044 243° Southwest 466 536 36,000  Level FlightAware Transoceanic
01:26PM 31.4265 -140.7405 242° Southwest 466 536 36,000  Level FlightAware Transoceanic
01:27PM 31.3659 -140.8765 242° Southwest 466 536 36,000  Level FlightAware Transoceanic
01:28PM 31.3052 -141.0123 242° Southwest 466 536 36,000  Level FlightAware Transoceanic
01:29PM 31.2443 -141.1479 242° Southwest 466 536 36,000  Level FlightAware Transoceanic
01:29PM 31.2500 -141.1333 243° Southwest 467 537 36,000  Level Oakland Oceanic (ODAPS)
01:30PM 31.1833 -141.2833 242° Southwest 466 536 36,000  Level FlightAware Transoceanic
01:30PM 31.1810 -141.3300 242° Southwest 471 542 36,000  Level ACARS Aircraft Datalink
01:30PM 31.1833 -141.2833 242° Southwest 473 544 36,000  Level Oakland Oceanic (ODAPS)
01:31PM 31.1223 -141.4186 242° Southwest 466 536 36,000  Level FlightAware Transoceanic
01:33PM 31.0092 -141.7047 242° Southwest  Level FlightAware Approximate
01:34PM 30.9517 -141.8293 242° Southwest  Level FlightAware Approximate
01:35PM 30.8766 -141.9580 242° Southwest 467 537 36,000  Level FlightAware Transoceanic
01:36PM 30.8149 -142.0924 242° Southwest 473 544 36,000  Level FlightAware Transoceanic
01:37PM 30.7530 -142.2267 242° Southwest 473 544 36,000  Level FlightAware Transoceanic
01:38PM 30.6909 -142.3607 242° Southwest 473 544 36,000  Level FlightAware Transoceanic
01:39PM 30.6288 -142.4946 242° Southwest 473 544 36,000  Level FlightAware Transoceanic
01:40PM 30.5665 -142.6284 242° Southwest 473 544 36,000  Level FlightAware Transoceanic
01:41PM 30.5040 -142.7619 241° Southwest 473 544 36,000  Level FlightAware Transoceanic
01:42PM 30.4414 -142.8953 241° Southwest 473 544 36,000  Level FlightAware Transoceanic
01:43PM 30.3787 -143.0285 241° Southwest 473 544 36,000  Level FlightAware Transoceanic
01:43PM 30.4000 -143.0000 241° Southwest 475 547 36,000  Level Oakland Oceanic (ODAPS)
01:44PM 30.3158 -143.1616 241° Southwest 473 544 36,000  Level FlightAware Transoceanic
01:45PM 30.2529 -143.2944 241° Southwest 473 544 36,000  Level FlightAware Transoceanic
01:46PM 30.1897 -143.4271 241° Southwest 473 544 36,000  Level FlightAware Transoceanic
01:47PM 30.1265 -143.5597 241° Southwest 473 544 36,000  Level FlightAware Transoceanic
01:48PM 30.0631 -143.6920 241° Southwest 473 544 36,000  Level FlightAware Transoceanic
01:49PM 30.0177 -143.8004 241° Southwest 475 547 36,000  Level FlightAware Transoceanic
01:50PM 29.9535 -143.9332 241° Southwest 475 547 36,000  Level FlightAware Transoceanic
01:51PM 29.8891 -144.0659 241° Southwest 475 547 36,000  Level FlightAware Transoceanic
01:52PM 29.8247 -144.1983 241° Southwest 475 547 36,000  Level FlightAware Transoceanic
01:53PM 29.7601 -144.3306 241° Southwest 475 547 36,000  Level FlightAware Transoceanic
01:54PM 29.6954 -144.4627 241° Southwest 475 547 36,000  Level FlightAware Transoceanic
01:55PM 29.6305 -144.5947 240° Southwest 475 547 36,000  Level FlightAware Transoceanic
01:56PM 29.5655 -144.7265 240° Southwest 475 547 36,000  Level FlightAware Transoceanic
01:57PM 29.5004 -144.8581 240° Southwest 475 547 36,000  Level FlightAware Transoceanic
01:57PM 29.5000 -144.8500 240° Southwest 476 548 36,000  Level Oakland Oceanic (ODAPS)
01:58PM 29.4352 -144.9895 240° Southwest 475 547 36,000  Level FlightAware Transoceanic
01:59PM 29.3698 -145.1208 240° Southwest 475 547 36,000  Level FlightAware Transoceanic
02:00PM 29.3043 -145.2519 240° Southwest 475 547 36,000  Level FlightAware Transoceanic
02:01PM 29.2387 -145.3828 240° Southwest 475 547 36,000  Level FlightAware Transoceanic
02:02PM 29.1729 -145.5136 240° Southwest 475 547 36,000  Level FlightAware Transoceanic
02:03PM 29.1068 -145.6381 240° Southwest 476 548 36,000  Level FlightAware Transoceanic
02:04PM 29.0408 -145.7689 240° Southwest 476 548 36,000  Level FlightAware Transoceanic
02:05PM 28.9746 -145.8995 240° Southwest 476 548 36,000  Level FlightAware Transoceanic
02:06PM 28.9084 -146.0300 240° Southwest 476 548 36,000  Level FlightAware Transoceanic
02:07PM 28.8420 -146.1602 240° Southwest 476 548 36,000  Level FlightAware Transoceanic
02:08PM 28.7755 -146.2903 240° Southwest 476 548 36,000  Level FlightAware Transoceanic
02:09PM 28.7089 -146.4203 240° Southwest 476 548 36,000  Level FlightAware Transoceanic
02:10PM 28.6422 -146.5500 240° Southwest 476 548 36,000  Level FlightAware Transoceanic
02:10PM 28.5833 -146.6667 239° Southwest 473 544 36,000  Level Oakland Oceanic (ODAPS)
02:11PM 28.5753 -146.6796 240° Southwest 476 548 36,000  Level FlightAware Transoceanic
02:12PM 28.5083 -146.8091 239° Southwest 476 548 36,000  Level FlightAware Transoceanic
02:13PM 28.4412 -146.9383 239° Southwest 476 548 36,000  Level FlightAware Transoceanic
02:14PM 28.3740 -147.0674 239° Southwest 476 548 36,000  Level FlightAware Transoceanic
02:15PM 28.3066 -147.1964 239° Southwest 476 548 36,000  Level FlightAware Transoceanic
02:16PM 28.2392 -147.3252 239° Southwest 476 548 36,000  Level FlightAware Transoceanic
02:17PM 28.1748 -147.4487 239° Southwest 473 544 36,000  Level FlightAware Transoceanic
02:18PM 28.1063 -147.5784 239° Southwest 473 544 36,000  Level FlightAware Transoceanic
02:19PM 28.0376 -147.7080 239° Southwest 473 544 36,000  Level FlightAware Transoceanic
02:20PM 27.9689 -147.8374 239° Southwest 473 544 36,000  Level FlightAware Transoceanic
02:21PM 27.9000 -147.9667 239° Southwest 473 544 36,000  Level FlightAware Transoceanic
02:21PM 27.8800 -148.0350 239° Southwest 476 548 36,000  Level ACARS Aircraft Datalink
02:21PM 27.9000 -147.9667 239° Southwest 469 540 36,000  Level Oakland Oceanic (ODAPS)
02:24PM 27.6891 -148.3870 239° Southwest  Level FlightAware Approximate
02:24PM 27.6500 -148.4333 239° Southwest 467 537 36,000  Level Oakland Oceanic (ODAPS)
02:25PM 27.6253 -148.5040 238° Southwest  Level FlightAware Approximate
02:26PM 27.5614 -148.6210 238° Southwest  Level FlightAware Approximate
02:27PM 27.4910 -148.7263 239° Southwest 469 540 36,000  Level FlightAware Transoceanic
02:28PM 27.4224 -148.8524 238° Southwest 469 540 36,000  Level FlightAware Transoceanic
02:29PM 27.3538 -148.9783 238° Southwest 469 540 36,000  Level FlightAware Transoceanic
02:30PM 27.3050 -149.0682 238° Southwest 467 537 36,000  Level FlightAware Transoceanic
02:31PM 27.2356 -149.1947 238° Southwest 467 537 36,000  Level FlightAware Transoceanic
02:32PM 27.1662 -149.3210 238° Southwest 467 537 36,000  Level FlightAware Transoceanic
02:33PM 27.0966 -149.4472 238° Southwest 467 537 36,000  Level FlightAware Transoceanic
02:34PM 27.0269 -149.5732 238° Southwest 467 537 36,000  Level FlightAware Transoceanic
02:35PM 26.9571 -149.6991 238° Southwest 467 537 36,000  Level FlightAware Transoceanic
02:36PM 26.8872 -149.8248 238° Southwest 467 537 36,000  Level FlightAware Transoceanic
02:37PM 26.8172 -149.9503 238° Southwest 467 537 36,000  Level FlightAware Transoceanic
02:38PM 26.7470 -150.0757 238° Southwest 467 537 36,000  Level FlightAware Transoceanic
02:38PM 26.6833 -150.1833 238° Southwest 464 534 36,000  Level Oakland Oceanic (ODAPS)
02:39PM 26.6768 -150.2010 238° Southwest 467 537 36,000  Level FlightAware Transoceanic
02:40PM 26.6064 -150.3260 238° Southwest 467 537 36,000  Level FlightAware Transoceanic
02:41PM 26.5360 -150.4510 238° Southwest 467 537 36,000  Level FlightAware Transoceanic
02:42PM 26.4654 -150.5758 238° Southwest 467 537 36,000  Level FlightAware Transoceanic
02:43PM 26.3947 -150.7004 238° Southwest 467 537 36,000  Level FlightAware Transoceanic
02:44PM 26.2710 -150.9128 238° Southwest 464 534 36,000  Level FlightAware Transoceanic
02:45PM 26.2020 -151.0339 238° Southwest 464 534 36,000  Level FlightAware Transoceanic
02:46PM 26.1328 -151.1548 237° Southwest 464 534 36,000  Level FlightAware Transoceanic
02:47PM 26.0635 -151.2756 237° Southwest 464 534 36,000  Level FlightAware Transoceanic
02:48PM 25.9941 -151.3963 237° Southwest 464 534 36,000  Level FlightAware Transoceanic
02:49PM 25.9246 -151.5168 237° Southwest 464 534 36,000  Level FlightAware Transoceanic
02:50PM 25.8551 -151.6371 237° Southwest 464 534 36,000  Level FlightAware Transoceanic
02:51PM 25.7854 -151.7574 237° Southwest 464 534 36,000  Level FlightAware Transoceanic
02:52PM 25.7156 -151.8775 237° Southwest 464 534 36,000  Level FlightAware Transoceanic
02:52PM 25.7333 -151.8500 237° Southwest 458 527 36,000  Level Oakland Oceanic (ODAPS)
02:53PM 25.6457 -151.9974 237° Southwest 464 534 36,000  Level FlightAware Transoceanic
02:54PM 25.5758 -152.1172 237° Southwest 464 534 36,000  Level FlightAware Transoceanic
02:55PM 25.5057 -152.2368 237° Southwest 464 534 36,000  Level FlightAware Transoceanic
02:56PM 25.4355 -152.3564 237° Southwest 464 534 36,000  Level FlightAware Transoceanic
02:57PM 25.3653 -152.4757 237° Southwest 464 534 36,000  Level FlightAware Transoceanic
02:58PM 25.3278 -152.5415 237° Southwest 458 527 36,000  Level FlightAware Transoceanic
02:59PM 25.2599 -152.6562 237° Southwest 458 527 36,000  Level FlightAware Transoceanic
03:00PM 25.1919 -152.7709 237° Southwest 458 527 36,000  Level FlightAware Transoceanic
03:01PM 25.1238 -152.8854 237° Southwest 458 527 36,000  Level FlightAware Transoceanic
03:02PM 25.0556 -152.9998 237° Southwest 458 527 36,000  Level FlightAware Transoceanic
03:03PM 24.9873 -153.1141 237° Southwest 458 527 36,000  Level FlightAware Transoceanic
03:04PM 24.9190 -153.2283 237° Southwest 458 527 36,000  Level FlightAware Transoceanic
03:05PM 24.8506 -153.3423 236° Southwest 458 527 36,000  Level FlightAware Transoceanic
03:06PM 24.7820 -153.4562 236° Southwest 458 527 36,000  Level FlightAware Transoceanic
03:06PM 24.7667 -153.4833 236° Southwest 454 522 36,000  Level Oakland Oceanic (ODAPS)
03:07PM 24.7134 -153.5700 236° Southwest 458 527 36,000  Level FlightAware Transoceanic
03:08PM 24.6447 -153.6836 236° Southwest 458 527 36,000  Level FlightAware Transoceanic
03:09PM 24.5760 -153.7971 236° Southwest 458 527 36,000  Level FlightAware Transoceanic
03:10PM 24.5071 -153.9106 236° Southwest 458 527 36,000  Level FlightAware Transoceanic
03:11PM 24.4382 -154.0238 236° Southwest 458 527 36,000  Level FlightAware Transoceanic
03:12PM 24.3669 -154.1408 236° Southwest 454 522 36,000  Level FlightAware Transoceanic
03:13PM 24.3000 -154.2500 236° Southwest 454 522 36,000  Level FlightAware Transoceanic
03:13PM 24.2960 -154.2930 236° Southwest 454 522 36,000  Level ACARS Aircraft Datalink
03:13PM 24.2167 -154.3333 235° Southwest 450 518 36,000  Level Honolulu Center
03:14PM 24.1500 -154.4333 234° Southwest 460 529 36,000  Level Honolulu Center
03:15PM 24.0333 -154.5167 213° Southwest 460 529 36,000  Level Honolulu Center
03:16PM 24.0632 -154.6071 236° Southwest  Level FlightAware Approximate
03:16PM 23.9333 -154.5667 205° Southwest 450 518 36,000  Level Honolulu Center
03:17PM 23.9940 -154.7168 235° Southwest  Level FlightAware Approximate
03:17PM 23.8167 -154.6333 208° Southwest 450 518 36,000  Level Honolulu Center
03:18PM 23.9247 -154.8263 235° Southwest  Level FlightAware Approximate
03:18PM 23.7000 -154.7167 213° Southwest 450 518 36,000  Level Honolulu Center
03:19PM 23.6000 -154.7833 211° Southwest 450 518 36,000  Level Honolulu Center
03:20PM 23.4833 -154.8500 208° Southwest 450 518 36,000  Level Honolulu Center
03:21PM 23.3833 -154.9167 211° Southwest 450 518 36,000  Level Honolulu Center
03:22PM 23.2667 -154.9833 208° Southwest 450 518 36,000  Level Honolulu Center
03:23PM 23.1667 -155.0500 212° Southwest 450 518 36,000  Level Honolulu Center
03:24PM 23.0500 -155.1167 208° Southwest 460 529 36,000  Level Honolulu Center
03:25PM 22.9333 -155.1833 208° Southwest 450 518 36,000  Level Honolulu Center
03:26PM 22.8333 -155.2500 212° Southwest 460 529 36,000  Level Honolulu Center
03:27PM 22.7167 -155.3167 208° Southwest 460 529 36,000  Level Honolulu Center
03:28PM 22.6000 -155.3833 208° Southwest 450 518 36,000  Level Honolulu Center
03:29PM 22.5000 -155.4500 212° Southwest 450 518 36,000 -600 Level Honolulu Center
03:30PM 22.3833 -155.5167 208° Southwest 460 529 34,800 -2,100 Descending Honolulu Center
03:31PM 22.2667 -155.5833 208° Southwest 460 529 31,800 -2,820 Descending Honolulu Center
03:32PM 22.1500 -155.6667 213° Southwest 470 541 29,200 -2,460 Descending Honolulu Center
03:33PM 22.0500 -155.7333 212° Southwest 450 518 26,900 -2,280 Descending Honolulu Center
03:34PM 21.9333 -155.7833 202° Southwest 440 506 24,700 -2,280 Descending Honolulu Center
03:35PM 21.8333 -155.8500 212° Southwest 420 483 22,400 -2,220 Descending Honolulu Center
03:36PM 21.7333 -155.9167 212° Southwest 410 472 20,300 -2,220 Descending Honolulu Center
03:37PM 21.6333 -155.9667 205° Southwest 390 449 18,000 -2,340 Descending Honolulu Center
03:38PM 21.5333 -156.0333 212° Southwest 390 449 15,700 -2,160 Descending Honolulu Center
03:39PM 21.4500 -156.0833 209° Southwest 380 437 13,700 -2,040 Descending Honolulu Center
03:40PM 21.3500 -156.1333 205° Southwest 370 426 11,600 -1,800 Descending Honolulu Center
03:41PM 21.2667 -156.1833 209° Southwest 350 403 10,100 -900 Descending Honolulu Center
03:42PM 21.2000 -156.2333 215° Southwest 300 345 9,800 -780 Descending Honolulu Center
03:43PM 21.1167 -156.2667 200° South 280 322 8,600 -1,140 Descending Honolulu Center
03:44PM 21.0500 -156.3000 205° Southwest 270 311 7,600 -1,020 Descending Honolulu Center
03:45PM 20.9833 -156.3333 205° Southwest 260 299 6,600 -1,020 Descending Honolulu Center
03:46PM 20.9333 -156.3667 212° Southwest 250 288 5,600 -900 Descending Honolulu Center
03:47PM 20.8667 -156.4000 205° Southwest 220 253 4,800 -900 Descending Honolulu Center
03:48PM 20.8167 -156.4167 197° South 200 230 3,800 -900 Descending Honolulu Center
03:49PM 20.7667 -156.4333 197° South 200 230 3,000 -840 Descending Honolulu Center